createdAt,value
2017-12-25T00:02:03.828Z,98557.33
2017-12-25T00:04:32.918Z,98553.45
2017-12-25T00:07:01.231Z,98554.85
2017-12-25T00:09:29.564Z,98551.45
2017-12-25T00:11:57.879Z,98556.90
2017-12-25T00:14:26.226Z,98548.43
2017-12-25T00:16:54.560Z,98551.75
2017-12-25T00:19:22.909Z,98548.42
2017-12-25T00:21:51.244Z,98545.17
2017-12-25T00:24:19.589Z,98544.67
2017-12-25T00:26:47.906Z,98551.02
2017-12-25T00:29:16.227Z,98554.00
2017-12-25T00:31:44.551Z,98554.73
2017-12-25T00:34:12.880Z,98552.17
2017-12-25T00:36:41.198Z,98539.02
2017-12-25T00:39:09.518Z,98544.52
2017-12-25T00:41:38.632Z,98542.00
2017-12-25T00:44:06.959Z,98545.02
2017-12-25T00:46:35.288Z,98541.62
2017-12-25T00:49:04.786Z,98543.24
2017-12-25T00:51:33.106Z,98550.18
2017-12-25T00:54:01.425Z,98536.44
2017-12-25T00:56:30.503Z,98540.48
2017-12-25T00:58:58.818Z,98539.25
2017-12-25T01:01:27.146Z,98531.55
2017-12-25T01:03:55.482Z,98528.19
2017-12-25T01:06:23.810Z,98535.30
2017-12-25T01:08:52.153Z,98535.29
2017-12-25T01:11:20.484Z,98530.61
2017-12-25T01:13:48.816Z,98534.99
2017-12-25T01:16:17.148Z,98522.99
2017-12-25T01:18:46.245Z,98525.13
2017-12-25T01:21:14.564Z,98516.70
2017-12-25T01:23:42.882Z,98521.06
2017-12-25T01:26:11.244Z,98528.84
2017-12-25T01:28:39.584Z,98525.75
2017-12-25T01:31:07.920Z,98524.31
2017-12-25T01:33:37.020Z,98527.64
2017-12-25T01:36:05.356Z,98526.91
2017-12-25T01:38:33.687Z,98524.73
2017-12-25T01:41:02.018Z,98532.06
2017-12-25T01:43:30.364Z,98517.27
2017-12-25T01:45:58.681Z,98515.37
2017-12-25T01:48:26.995Z,98514.95
2017-12-25T01:50:55.330Z,98507.25
2017-12-25T01:53:24.501Z,98510.73
2017-12-25T01:55:53.376Z,98506.44
2017-12-25T01:58:32.330Z,98506.36
2017-12-25T02:07:37.484Z,98504.70
2017-12-25T02:10:05.834Z,98505.55
2017-12-25T02:12:34.177Z,98509.93
2017-12-25T02:15:02.491Z,98503.81
2017-12-25T02:17:31.593Z,98506.74
2017-12-25T02:20:00.388Z,98507.05
2017-12-25T02:22:28.717Z,98500.27
2017-12-25T02:24:57.039Z,98503.38
2017-12-25T02:27:25.392Z,98496.41
2017-12-25T02:29:53.723Z,98496.57
2017-12-25T02:32:22.040Z,98497.30
2017-12-25T02:34:50.364Z,98498.70
2017-12-25T02:37:18.709Z,98498.78
2017-12-25T02:39:47.048Z,98502.36
2017-12-25T02:42:15.371Z,98502.19
2017-12-25T02:44:44.485Z,98494.56
2017-12-25T02:47:12.833Z,98500.79
2017-12-25T02:49:41.181Z,98491.77
2017-12-25T02:52:09.503Z,98495.47
2017-12-25T02:54:37.833Z,98481.52
2017-12-25T02:57:06.787Z,98489.17
2017-12-25T02:59:35.116Z,98484.23
2017-12-25T03:02:03.459Z,98486.87
2017-12-25T03:04:31.779Z,98479.34
2017-12-25T03:07:00.123Z,98487.09
2017-12-25T03:09:28.451Z,98486.36
2017-12-25T03:11:56.785Z,98478.58
2017-12-25T03:14:25.117Z,98478.66
2017-12-25T03:16:54.233Z,98475.34
2017-12-25T03:19:22.572Z,98462.58
2017-12-25T03:21:50.913Z,98468.53
2017-12-25T03:24:19.240Z,98460.45
2017-12-25T03:26:48.316Z,98466.88
2017-12-25T03:29:16.651Z,98462.19
2017-12-25T03:31:44.979Z,98465.59
2017-12-25T03:34:14.075Z,98464.08
2017-12-25T03:36:44.856Z,98465.59
2017-12-25T03:39:13.197Z,98460.03
2017-12-25T03:41:42.289Z,98455.42
2017-12-25T03:44:10.610Z,98446.52
2017-12-25T03:46:38.926Z,98440.31
2017-12-25T03:49:07.254Z,98441.55
2017-12-25T03:51:35.571Z,98441.84
2017-12-25T03:54:03.921Z,98439.85
2017-12-25T03:56:32.255Z,98434.42
2017-12-25T03:59:00.598Z,98437.00
2017-12-25T04:01:28.914Z,98436.19
2017-12-25T04:03:58.020Z,98436.84
2017-12-25T04:06:26.361Z,98428.00
2017-12-25T04:08:54.702Z,98433.99
2017-12-25T04:11:23.048Z,98430.22
2017-12-25T04:13:51.363Z,98424.66
2017-12-25T04:16:19.669Z,98426.88
2017-12-25T04:18:47.968Z,98421.31
2017-12-25T04:21:16.327Z,98423.44
2017-12-25T04:23:44.674Z,98420.91
2017-12-25T04:26:12.996Z,98413.70
2017-12-25T04:28:42.084Z,98413.73
2017-12-25T04:31:10.414Z,98406.47
2017-12-25T04:33:38.753Z,98407.72
2017-12-25T04:36:07.834Z,98403.91
2017-12-25T04:38:36.166Z,98398.31
2017-12-25T04:41:04.495Z,98399.63
2017-12-25T04:43:33.586Z,98396.14
2017-12-25T04:46:01.923Z,98394.86
2017-12-25T04:48:30.262Z,98388.08
2017-12-25T04:50:58.578Z,98391.78
2017-12-25T04:53:26.924Z,98392.64
2017-12-25T04:55:55.236Z,98388.84
2017-12-25T04:58:23.961Z,98390.74
2017-12-25T05:00:53.065Z,98390.88
2017-12-25T05:03:22.177Z,98389.03
2017-12-25T05:05:50.793Z,98385.37
2017-12-25T05:08:19.120Z,98386.81
2017-12-25T05:10:48.233Z,98386.48
2017-12-25T05:13:16.559Z,98390.41
2017-12-25T05:15:44.888Z,98388.64
2017-12-25T05:18:13.236Z,98381.38
2017-12-25T05:20:41.564Z,98380.20
2017-12-25T05:23:09.904Z,98375.58
2017-12-25T05:25:38.235Z,98375.16
2017-12-25T05:28:06.589Z,98373.09
2017-12-25T05:30:34.911Z,98372.23
2017-12-25T05:33:03.252Z,98367.07
2017-12-25T05:35:31.576Z,98371.41
2017-12-25T05:37:59.917Z,98370.90
2017-12-25T05:40:28.273Z,98369.34
2017-12-25T05:42:56.593Z,98377.80
2017-12-25T05:45:24.915Z,98375.70
2017-12-25T05:47:53.237Z,98372.66
2017-12-25T05:50:21.554Z,98370.98
2017-12-25T05:52:50.643Z,98366.30
2017-12-25T05:55:18.967Z,98366.70
2017-12-25T05:57:47.287Z,98361.98
2017-12-25T06:00:15.620Z,98365.88
2017-12-25T06:02:43.950Z,98371.38
2017-12-25T06:05:13.038Z,98365.39
2017-12-25T06:07:41.372Z,98361.38
2017-12-25T06:10:09.686Z,98360.92
2017-12-25T06:12:38.025Z,98354.97
2017-12-25T06:15:07.247Z,98354.60
2017-12-25T06:17:36.552Z,98350.28
2017-12-25T06:20:04.894Z,98349.04
2017-12-25T06:22:33.222Z,98348.64
2017-12-25T06:25:01.554Z,98338.41
2017-12-25T06:27:29.870Z,98343.48
2017-12-25T06:29:58.222Z,98334.48
2017-12-25T06:32:26.685Z,98334.51
2017-12-25T06:34:55.007Z,98329.38
2017-12-25T06:37:23.329Z,98326.03
2017-12-25T06:39:51.661Z,98320.89
2017-12-25T06:42:19.995Z,98319.16
2017-12-25T06:44:48.323Z,98323.36
2017-12-25T06:47:16.653Z,98322.77
2017-12-25T06:49:44.968Z,98316.84
2017-12-25T06:52:13.300Z,98313.83
2017-12-25T06:54:41.671Z,98318.94
2017-12-25T06:57:10.007Z,98313.02
2017-12-25T06:59:39.128Z,98312.12
2017-12-25T07:02:07.470Z,98314.72
2017-12-25T07:04:35.805Z,98310.85
2017-12-25T07:07:04.157Z,98314.25
2017-12-25T07:09:32.482Z,98315.03
2017-12-25T07:12:00.795Z,98313.69
2017-12-25T07:14:29.143Z,98312.48
2017-12-25T07:16:57.481Z,98308.66
2017-12-25T07:19:25.806Z,98314.15
2017-12-25T07:21:54.144Z,98308.55
2017-12-25T07:24:22.471Z,98309.05
2017-12-25T07:26:50.810Z,98301.85
2017-12-25T07:29:19.135Z,98304.72
2017-12-25T07:34:46.035Z,98303.91
2017-12-25T07:37:14.369Z,98303.59
2017-12-25T07:39:42.703Z,98305.68
2017-12-25T07:42:11.013Z,98301.00
2017-12-25T07:44:39.348Z,98303.45
2017-12-25T07:47:07.678Z,98305.11
2017-12-25T07:49:36.020Z,98305.53
2017-12-25T07:52:04.366Z,98305.22
2017-12-25T07:54:33.469Z,98303.09
2017-12-25T07:57:01.813Z,98300.94
2017-12-25T07:59:30.153Z,98303.66
2017-12-25T08:01:58.467Z,98293.28
2017-12-25T08:04:26.810Z,98297.56
2017-12-25T08:06:55.148Z,98299.69
2017-12-25T08:09:23.492Z,98294.55
2017-12-25T08:11:51.819Z,98300.16
2017-12-25T08:14:20.149Z,98298.06
2017-12-25T08:16:48.462Z,98297.17
2017-12-25T08:19:16.808Z,98301.89
2017-12-25T08:21:45.144Z,98296.29
2017-12-25T08:24:13.520Z,98295.41
2017-12-25T08:26:43.456Z,98289.98
2017-12-25T08:29:11.834Z,98293.77
2017-12-25T08:31:40.151Z,98295.22
2017-12-25T08:34:08.492Z,98288.80
2017-12-25T08:36:36.833Z,98296.49
2017-12-25T08:39:05.177Z,98291.36
2017-12-25T08:41:33.531Z,98291.78
2017-12-25T08:44:01.855Z,98288.84
2017-12-25T08:46:30.213Z,98288.38
2017-12-25T08:48:59.310Z,98294.37
2017-12-25T08:51:27.697Z,98288.02
2017-12-25T08:53:56.106Z,98291.36
2017-12-25T08:56:24.681Z,98284.61
2017-12-25T08:58:53.028Z,98291.02
2017-12-25T09:01:22.780Z,98284.58
2017-12-25T09:03:51.154Z,98281.21
2017-12-25T09:06:19.486Z,98275.68
2017-12-25T09:08:53.073Z,98278.56
2017-12-25T09:11:21.411Z,98279.97
2017-12-25T09:13:49.762Z,98279.78
2017-12-25T09:16:18.853Z,98280.98
2017-12-25T09:18:47.183Z,98278.47
2017-12-25T09:21:15.549Z,98275.98
2017-12-25T09:23:44.648Z,98274.80
2017-12-25T09:26:12.996Z,98281.11
2017-12-25T09:28:41.321Z,98281.94
2017-12-25T09:31:09.634Z,98281.15
2017-12-25T09:33:38.723Z,98283.21
2017-12-25T09:36:07.062Z,98282.78
2017-12-25T09:38:35.396Z,98284.52
2017-12-25T09:41:04.496Z,98287.47
2017-12-25T09:43:32.840Z,98283.57
2017-12-25T09:46:01.159Z,98288.70
2017-12-25T09:48:30.216Z,98285.66
2017-12-25T09:50:59.428Z,98281.77
2017-12-25T09:53:29.458Z,98274.58
2017-12-25T09:55:59.712Z,98273.55
2017-12-25T09:58:28.041Z,98273.05
2017-12-25T10:00:56.370Z,98272.93
2017-12-25T10:03:25.982Z,98268.64
2017-12-25T10:05:54.321Z,98268.98
2017-12-25T10:08:22.669Z,98269.41
2017-12-25T10:10:50.990Z,98268.64
2017-12-25T10:13:19.328Z,98260.22
2017-12-25T10:15:47.711Z,98258.87
2017-12-25T10:18:16.798Z,98253.23
2017-12-25T10:20:45.131Z,98253.77
2017-12-25T10:23:13.505Z,98251.69
2017-12-25T10:25:41.849Z,98255.63
2017-12-25T10:28:10.162Z,98248.57
2017-12-25T10:30:38.482Z,98249.91
2017-12-25T10:33:06.823Z,98250.30
2017-12-25T10:35:35.160Z,98246.97
2017-12-25T10:38:04.260Z,98240.95
2017-12-25T10:40:32.579Z,98236.31
2017-12-25T10:43:00.900Z,98229.41
2017-12-25T10:45:29.994Z,98228.17
2017-12-25T10:47:58.326Z,98220.06
2017-12-25T10:50:26.661Z,98223.45
2017-12-25T10:52:55.782Z,98217.14
2017-12-25T10:55:24.114Z,98206.55
2017-12-25T10:57:52.443Z,98201.87
2017-12-25T11:00:20.785Z,98206.12
2017-12-25T11:02:49.915Z,98209.00
2017-12-25T11:05:18.254Z,98204.79
2017-12-25T11:07:46.586Z,98194.67
2017-12-25T11:10:14.914Z,98202.40
2017-12-25T11:12:44.018Z,98199.24
2017-12-25T11:15:13.140Z,98193.69
2017-12-25T11:17:41.484Z,98188.16
2017-12-25T11:20:09.839Z,98179.66
2017-12-25T11:22:38.188Z,98193.64
2017-12-25T11:25:06.530Z,98185.03
2017-12-25T11:27:34.870Z,98181.75
2017-12-25T11:30:03.210Z,98174.11
2017-12-25T11:32:32.765Z,98161.30
2017-12-25T11:35:01.095Z,98155.87
2017-12-25T11:37:29.432Z,98153.53
2017-12-25T11:39:57.769Z,98149.08
2017-12-25T11:42:26.096Z,98136.80
2017-12-25T11:44:54.452Z,98136.44
2017-12-25T11:47:22.805Z,98135.78
2017-12-25T11:49:51.130Z,98131.08
2017-12-25T11:52:21.272Z,98119.63
2017-12-25T11:54:49.619Z,98110.81
2017-12-25T11:57:17.959Z,98107.84
2017-12-25T11:59:46.300Z,98107.39
2017-12-25T12:02:15.543Z,98097.56
2017-12-25T12:04:43.884Z,98099.15
2017-12-25T12:07:12.198Z,98103.42
2017-12-25T12:09:40.704Z,98091.61
2017-12-25T12:12:09.038Z,98086.03
2017-12-25T12:14:37.362Z,98081.33
2017-12-25T12:17:07.250Z,98078.41
2017-12-25T12:19:35.586Z,98073.31
2017-12-25T12:22:03.930Z,98070.34
2017-12-25T12:24:32.266Z,98068.22
2017-12-25T12:27:00.616Z,98068.27
2017-12-25T12:29:28.981Z,98061.73
2017-12-25T12:31:57.291Z,98060.41
2017-12-25T12:34:25.629Z,98051.61
2017-12-25T12:36:54.773Z,98057.53
2017-12-25T12:39:23.128Z,98043.52
2017-12-25T12:41:51.456Z,98038.86
2017-12-25T12:44:19.783Z,98036.27
2017-12-25T12:46:48.344Z,98038.86
2017-12-25T12:49:16.657Z,98026.56
2017-12-25T12:51:44.970Z,98024.53
2017-12-25T12:54:13.312Z,98014.27
2017-12-25T12:56:42.735Z,98011.69
2017-12-25T12:59:11.079Z,98007.86
2017-12-25T13:01:39.531Z,98003.23
2017-12-25T13:04:07.863Z,97998.52
2017-12-25T13:06:36.174Z,97989.57
2017-12-25T13:09:05.267Z,97987.00
2017-12-25T13:11:33.631Z,97975.56
2017-12-25T13:14:01.965Z,97978.93
2017-12-25T13:16:30.309Z,97972.89
2017-12-25T13:18:58.644Z,97972.04
2017-12-25T13:21:26.971Z,97970.41
2017-12-25T13:23:56.105Z,97964.42
2017-12-25T13:26:24.432Z,97953.45
2017-12-25T13:28:53.209Z,97958.56
2017-12-25T13:31:21.544Z,97955.11
2017-12-25T13:33:49.874Z,97954.69
2017-12-25T13:36:18.207Z,97953.02
2017-12-25T13:38:46.540Z,97946.62
2017-12-25T13:41:14.889Z,97940.61
2017-12-25T13:43:43.223Z,97941.48
2017-12-25T13:46:11.638Z,97939.41
2017-12-25T13:48:39.981Z,97938.09
2017-12-25T13:51:08.302Z,97924.05
2017-12-25T13:53:36.637Z,97930.40
2017-12-25T13:56:05.954Z,97919.33
2017-12-25T13:58:34.292Z,97919.81
2017-12-25T14:01:02.628Z,97910.08
2017-12-25T14:03:30.960Z,97908.80
2017-12-25T14:05:59.270Z,97909.65
2017-12-25T14:08:27.603Z,97910.52
2017-12-25T14:10:55.938Z,97914.33
2017-12-25T14:13:24.264Z,97904.52
2017-12-25T14:15:52.578Z,97904.97
2017-12-25T14:18:20.966Z,97910.45
2017-12-25T14:20:49.556Z,97893.88
2017-12-25T14:23:17.921Z,97895.55
2017-12-25T14:25:46.239Z,97892.14
2017-12-25T14:28:15.352Z,97895.50
2017-12-25T14:30:43.687Z,97894.16
2017-12-25T14:33:12.023Z,97900.89
2017-12-25T14:35:40.352Z,97890.70
2017-12-25T14:38:08.689Z,97889.37
2017-12-25T14:40:37.024Z,97887.18
2017-12-25T14:43:06.129Z,97882.56
2017-12-25T14:45:34.646Z,97880.86
2017-12-25T14:48:02.985Z,97880.39
2017-12-25T14:50:32.942Z,97880.39
2017-12-25T14:53:01.269Z,97881.21
2017-12-25T14:55:30.387Z,97873.07
2017-12-25T14:57:58.750Z,97875.22
2017-12-25T15:00:27.845Z,97868.03
2017-12-25T15:02:56.199Z,97873.95
2017-12-25T15:05:24.520Z,97869.73
2017-12-25T15:07:52.857Z,97864.14
2017-12-25T15:10:21.174Z,97866.25
2017-12-25T15:12:50.745Z,97866.23
2017-12-25T15:15:19.861Z,97861.13
2017-12-25T15:17:48.207Z,97859.05
2017-12-25T15:20:16.554Z,97861.50
2017-12-25T15:22:44.852Z,97858.90
2017-12-25T15:25:13.186Z,97857.63
2017-12-25T15:27:43.145Z,97853.81
2017-12-25T15:30:11.488Z,97852.94
2017-12-25T15:32:39.828Z,97846.88
2017-12-25T15:35:08.210Z,97845.11
2017-12-25T15:37:38.621Z,97841.30
2017-12-25T15:40:06.968Z,97842.57
2017-12-25T15:42:35.331Z,97846.03
2017-12-25T15:45:04.214Z,97840.58
2017-12-25T15:47:32.526Z,97838.30
2017-12-25T15:50:00.851Z,97831.52
2017-12-25T15:52:29.172Z,97839.17
2017-12-25T15:54:57.498Z,97827.21
2017-12-25T15:57:26.586Z,97830.11
2017-12-25T15:59:54.928Z,97829.33
2017-12-25T16:02:23.240Z,97830.05
2017-12-25T16:04:52.337Z,97824.21
2017-12-25T16:07:20.663Z,97829.66
2017-12-25T16:09:49.704Z,97819.38
2017-12-25T16:12:18.045Z,97812.14
2017-12-25T16:14:46.398Z,97804.41
2017-12-25T16:17:14.707Z,97814.65
2017-12-25T16:19:43.046Z,97809.52
2017-12-25T16:22:11.387Z,97809.95
2017-12-25T16:24:39.732Z,97796.04
2017-12-25T16:27:08.107Z,97797.63
2017-12-25T16:29:36.444Z,97795.08
2017-12-25T16:32:04.773Z,97794.62
2017-12-25T16:34:33.125Z,97794.20
2017-12-25T16:37:01.461Z,97801.83
2017-12-25T16:39:30.571Z,97792.97
2017-12-25T16:41:58.895Z,97795.90
2017-12-25T16:44:27.232Z,97796.70
2017-12-25T16:46:55.546Z,97801.37
2017-12-25T16:49:23.866Z,97797.86
2017-12-25T16:51:52.196Z,97791.59
2017-12-25T16:54:20.553Z,97778.07
2017-12-25T16:56:48.891Z,97781.07
2017-12-25T16:59:17.222Z,97778.42
2017-12-25T17:01:46.405Z,97788.20
2017-12-25T17:04:15.622Z,97780.96
2017-12-25T17:06:43.960Z,97773.80
2017-12-25T17:09:12.297Z,97775.95
2017-12-25T17:11:40.645Z,97761.94
2017-12-25T17:14:08.986Z,97762.39
2017-12-25T17:16:38.093Z,97767.68
2017-12-25T17:19:06.433Z,97766.10
2017-12-25T17:21:34.778Z,97761.13
2017-12-25T17:24:03.113Z,97763.13
2017-12-25T17:26:32.207Z,97768.67
2017-12-25T17:29:01.299Z,97759.85
2017-12-25T17:31:29.615Z,97759.36
2017-12-25T17:33:57.912Z,97756.04
2017-12-25T17:36:26.230Z,97759.47
2017-12-25T17:38:55.300Z,97757.34
2017-12-25T17:41:23.620Z,97750.53
2017-12-25T17:43:51.939Z,97749.16
2017-12-25T17:46:20.289Z,97752.94
2017-12-25T17:48:48.632Z,97757.59
2017-12-25T17:51:16.947Z,97754.59
2017-12-25T17:53:45.289Z,97753.81
2017-12-25T17:56:13.620Z,97750.50
2017-12-25T17:58:41.960Z,97750.70
2017-12-25T18:01:15.475Z,97750.36
2017-12-25T18:03:43.798Z,97739.73
2017-12-25T18:06:12.131Z,97740.16
2017-12-25T18:08:40.460Z,97731.72
2017-12-25T18:11:08.793Z,97729.11
2017-12-25T18:13:37.132Z,97723.78
2017-12-25T18:16:06.336Z,97716.52
2017-12-25T18:18:35.194Z,97717.72
2017-12-25T18:21:03.533Z,97709.70
2017-12-25T18:23:31.872Z,97706.28
2017-12-25T18:26:00.966Z,97707.94
2017-12-25T18:28:29.290Z,97699.83
2017-12-25T18:30:57.638Z,97691.36
2017-12-25T18:33:26.003Z,97685.04
2017-12-25T18:35:55.109Z,97685.42
2017-12-25T18:38:23.452Z,97680.38
2017-12-25T18:40:51.785Z,97676.01
2017-12-25T18:43:20.133Z,97676.96
2017-12-25T18:45:49.234Z,97669.73
2017-12-25T18:48:17.561Z,97672.77
2017-12-25T18:50:45.879Z,97665.46
2017-12-25T18:53:14.967Z,97666.77
2017-12-25T18:55:43.313Z,97657.34
2017-12-25T18:58:11.673Z,97653.61
2017-12-25T19:00:40.020Z,97654.35
2017-12-25T19:03:08.369Z,97653.11
2017-12-25T19:05:36.694Z,97646.41
2017-12-25T19:08:05.049Z,97644.69
2017-12-25T19:10:33.371Z,97642.60
2017-12-25T19:13:01.752Z,97641.76
2017-12-25T19:15:30.072Z,97625.28
2017-12-25T19:18:00.375Z,97626.55
2017-12-25T19:20:28.709Z,97629.45
2017-12-25T19:22:57.021Z,97621.38
2017-12-25T19:25:25.359Z,97621.83
2017-12-25T19:27:53.675Z,97618.05
2017-12-25T19:30:22.032Z,97623.59
2017-12-25T19:32:50.337Z,97621.44
2017-12-25T19:35:18.644Z,97613.78
2017-12-25T19:37:46.970Z,97615.13
2017-12-25T19:40:15.301Z,97611.28
2017-12-25T19:42:44.383Z,97596.79
2017-12-25T19:45:12.719Z,97598.94
2017-12-25T19:47:41.044Z,97587.45
2017-12-25T19:50:10.136Z,97582.40
2017-12-25T19:52:38.498Z,97575.20
2017-12-25T19:55:06.835Z,97576.84
2017-12-25T19:57:35.167Z,97573.45
2017-12-25T20:00:04.302Z,97569.67
2017-12-25T20:02:32.610Z,97559.12
2017-12-25T20:05:00.955Z,97554.08
2017-12-25T20:07:29.333Z,97553.62
2017-12-25T20:09:57.680Z,97548.99
2017-12-25T20:12:26.812Z,97545.70
2017-12-25T20:14:55.362Z,97549.08
2017-12-25T20:17:23.772Z,97554.13
2017-12-25T20:19:52.153Z,97552.04
2017-12-25T20:22:20.690Z,97539.80
2017-12-25T20:24:50.100Z,97533.36
2017-12-25T20:27:18.702Z,97527.91
2017-12-25T20:29:47.261Z,97524.95
2017-12-25T20:32:15.738Z,97524.58
2017-12-25T20:34:44.562Z,97516.91
2017-12-25T20:37:13.003Z,97514.34
2017-12-25T20:39:41.772Z,97505.00
2017-12-25T20:42:10.303Z,97510.50
2017-12-25T20:44:38.831Z,97505.88
2017-12-25T20:47:07.951Z,97507.52
2017-12-25T20:49:40.352Z,97500.72
2017-12-25T20:52:08.815Z,97490.14
2017-12-25T20:54:38.389Z,97488.41
2017-12-25T20:57:07.243Z,97494.37
2017-12-25T20:59:36.760Z,97488.84
2017-12-25T21:02:05.756Z,97492.98
2017-12-25T21:04:34.896Z,97477.84
2017-12-25T21:07:03.836Z,97481.59
2017-12-25T21:09:32.944Z,97468.45
2017-12-25T21:12:02.518Z,97468.81
2017-12-25T21:14:32.038Z,97466.28
2017-12-25T21:17:01.557Z,97464.67
2017-12-25T21:19:30.558Z,97468.48
2017-12-25T21:21:59.502Z,97468.79
2017-12-25T21:24:28.524Z,97465.80
2017-12-25T21:26:57.061Z,97460.27
2017-12-25T21:29:26.004Z,97455.67
2017-12-25T21:31:54.688Z,97445.91
2017-12-25T21:34:24.027Z,97439.09
2017-12-25T21:36:52.609Z,97443.35
2017-12-25T21:39:21.273Z,97438.22
2017-12-25T21:41:49.766Z,97433.88
2017-12-25T21:44:18.976Z,97430.97
2017-12-25T21:46:47.504Z,97421.75
2017-12-25T21:49:16.336Z,97426.80
2017-12-25T21:51:45.407Z,97430.94
2017-12-25T21:54:14.236Z,97423.30
2017-12-25T21:56:44.045Z,97416.08
2017-12-25T21:59:13.328Z,97425.90
2017-12-25T22:01:42.618Z,97419.95
2017-12-25T22:04:12.841Z,97417.05
2017-12-25T22:06:43.486Z,97412.42
2017-12-25T22:09:12.050Z,97413.62
2017-12-25T22:11:40.499Z,97412.39
2017-12-25T22:14:08.915Z,97411.55
2017-12-25T22:16:37.360Z,97417.83
2017-12-25T22:19:05.753Z,97409.34
2017-12-25T22:21:34.099Z,97411.83
2017-12-25T22:24:02.570Z,97416.45
2017-12-25T22:26:30.916Z,97414.78
2017-12-25T22:28:59.252Z,97412.64
2017-12-25T22:31:27.674Z,97417.26
2017-12-25T22:33:56.113Z,97411.77
2017-12-25T22:36:24.456Z,97414.23
2017-12-25T22:38:52.889Z,97404.97
2017-12-25T22:41:21.278Z,97401.16
2017-12-25T22:43:49.799Z,97407.83
2017-12-25T22:46:18.239Z,97403.18
2017-12-25T22:48:46.588Z,97408.73
2017-12-25T22:51:14.913Z,97405.72
2017-12-25T22:53:43.260Z,97403.11
2017-12-25T22:56:13.100Z,97399.38
2017-12-25T22:58:41.519Z,97395.54
2017-12-25T23:01:10.684Z,97393.85
2017-12-25T23:03:39.022Z,97387.97
2017-12-25T23:06:07.338Z,97372.78
2017-12-25T23:08:35.676Z,97369.01
2017-12-25T23:11:04.009Z,97358.92
2017-12-25T23:13:32.349Z,97364.30
2017-12-25T23:16:00.672Z,97356.41
2017-12-25T23:18:28.981Z,97355.00
2017-12-25T23:20:57.303Z,97341.96
2017-12-25T23:23:25.642Z,97338.55
2017-12-25T23:25:54.733Z,97338.94
2017-12-25T23:28:23.054Z,97336.83
2017-12-25T23:30:51.395Z,97337.98
2017-12-25T23:33:19.774Z,97330.43
2017-12-25T23:35:48.112Z,97336.70
2017-12-25T23:38:17.244Z,97316.00
2017-12-25T23:40:45.586Z,97328.68
2017-12-25T23:43:13.947Z,97322.34
2017-12-25T23:45:42.311Z,97314.70
2017-12-25T23:48:10.661Z,97307.95
2017-12-25T23:50:39.001Z,97305.83
2017-12-25T23:53:08.106Z,97302.13
2017-12-25T23:55:36.444Z,97297.39
2017-12-25T23:58:04.789Z,97300.73
